sensor_id;sensor_type;location;lat;lon;timestamp;P1;durP1;ratioP1;P2;durP2;ratioP2
3293;SDS011;1659;51.470;6.770;2023-05-17T00:00:09;12.00;;;4.17;;
3293;SDS011;1659;51.470;6.770;2023-05-17T00:02:36;13.90;;;5.07;;
3293;SDS011;1659;51.470;6.770;2023-05-17T00:05:03;8.13;;;4.83;;
3293;SDS011;1659;51.470;6.770;2023-05-17T00:07:30;9.70;;;5.60;;
3293;SDS011;1659;51.470;6.770;2023-05-17T00:09:57;9.37;;;5.57;;
3293;SDS011;1659;51.470;6.770;2023-05-17T00:12:23;12.03;;;5.20;;
3293;SDS011;1659;51.470;6.770;2023-05-17T00:14:50;13.90;;;4.83;;
3293;SDS011;1659;51.470;6.770;2023-05-17T00:17:18;13.47;;;5.80;;
3293;SDS011;1659;51.470;6.770;2023-05-17T00:19:45;9.43;;;5.37;;
3293;SDS011;1659;51.470;6.770;2023-05-17T00:22:11;7.90;;;4.77;;
3293;SDS011;1659;51.470;6.770;2023-05-17T00:24:38;9.00;;;4.80;;
3293;SDS011;1659;51.470;6.770;2023-05-17T00:27:05;14.10;;;4.63;;
3293;SDS011;1659;51.470;6.770;2023-05-17T00:29:31;14.47;;;5.83;;
3293;SDS011;1659;51.470;6.770;2023-05-17T00:31:58;12.53;;;4.97;;
3293;SDS011;1659;51.470;6.770;2023-05-17T00:34:26;15.30;;;5.43;;
3293;SDS011;1659;51.470;6.770;2023-05-17T00:36:52;10.00;;;4.83;;
3293;SDS011;1659;51.470;6.770;2023-05-17T00:39:19;14.57;;;5.30;;
3293;SDS011;1659;51.470;6.770;2023-05-17T00:41:45;9.00;;;4.63;;
3293;SDS011;1659;51.470;6.770;2023-05-17T00:44:12;11.23;;;5.70;;
3293;SDS011;1659;51.470;6.770;2023-05-17T00:46:38;9.90;;;6.00;;
3293;SDS011;1659;51.470;6.770;2023-05-17T00:49:05;10.10;;;5.40;;
3293;SDS011;1659;51.470;6.770;2023-05-17T00:51:33;13.80;;;4.87;;
3293;SDS011;1659;51.470;6.770;2023-05-17T00:54:00;7.10;;;5.50;;
3293;SDS011;1659;51.470;6.770;2023-05-17T00:56:28;7.20;;;4.40;;
3293;SDS011;1659;51.470;6.770;2023-05-17T00:58:55;10.50;;;5.00;;
3293;SDS011;1659;51.470;6.770;2023-05-17T01:01:22;8.73;;;5.57;;
3293;SDS011;1659;51.470;6.770;2023-05-17T01:03:48;10.23;;;5.43;;
3293;SDS011;1659;51.470;6.770;2023-05-17T01:06:15;7.23;;;6.10;;
3293;SDS011;1659;51.470;6.770;2023-05-17T01:08:43;8.60;;;4.70;;
3293;SDS011;1659;51.470;6.770;2023-05-17T01:11:12;11.70;;;5.10;;
3293;SDS011;1659;51.470;6.770;2023-05-17T01:13:46;11.90;;;5.10;;
3293;SDS011;1659;51.470;6.770;2023-05-17T01:16:22;6.73;;;4.63;;
3293;SDS011;1659;51.470;6.770;2023-05-17T01:18:54;17.30;;;5.30;;
3293;SDS011;1659;51.470;6.770;2023-05-17T01:21:29;12.37;;;5.10;;
3293;SDS011;1659;51.470;6.770;2023-05-17T01:24:09;18.10;;;5.63;;
3293;SDS011;1659;51.470;6.770;2023-05-17T01:26:48;14.57;;;5.50;;
3293;SDS011;1659;51.470;6.770;2023-05-17T01:29:18;13.57;;;6.43;;
3293;SDS011;1659;51.470;6.770;2023-05-17T01:31:49;9.13;;;4.93;;
3293;SDS011;1659;51.470;6.770;2023-05-17T01:34:23;8.97;;;5.43;;
3293;SDS011;1659;51.470;6.770;2023-05-17T01:36:50;18.00;;;6.67;;
3293;SDS011;1659;51.470;6.770;2023-05-17T01:39:16;13.77;;;5.43;;
3293;SDS011;1659;51.470;6.770;2023-05-17T01:41:44;13.87;;;5.70;;
3293;SDS011;1659;51.470;6.770;2023-05-17T01:44:16;8.83;;;5.10;;
3293;SDS011;1659;51.470;6.770;2023-05-17T01:46:50;9.53;;;5.90;;
3293;SDS011;1659;51.470;6.770;2023-05-17T01:49:21;16.70;;;6.57;;
3293;SDS011;1659;51.470;6.770;2023-05-17T01:51:51;15.07;;;6.60;;
3293;SDS011;1659;51.470;6.770;2023-05-17T01:54:26;14.90;;;5.43;;
3293;SDS011;1659;51.470;6.770;2023-05-17T01:56:57;20.20;;;6.50;;
3293;SDS011;1659;51.470;6.770;2023-05-17T01:59:26;12.30;;;6.10;;
3293;SDS011;1659;51.470;6.770;2023-05-17T02:01:56;16.40;;;7.07;;
3293;SDS011;1659;51.470;6.770;2023-05-17T02:04:28;13.80;;;5.90;;
3293;SDS011;1659;51.470;6.770;2023-05-17T02:06:55;12.10;;;6.20;;
3293;SDS011;1659;51.470;6.770;2023-05-17T02:09:21;17.90;;;7.60;;
3293;SDS011;1659;51.470;6.770;2023-05-17T02:11:48;13.27;;;6.77;;
3293;SDS011;1659;51.470;6.770;2023-05-17T02:14:14;18.03;;;8.50;;
3293;SDS011;1659;51.470;6.770;2023-05-17T02:16:42;16.17;;;8.37;;
3293;SDS011;1659;51.470;6.770;2023-05-17T02:19:09;28.53;;;8.90;;
3293;SDS011;1659;51.470;6.770;2023-05-17T02:21:37;18.67;;;7.33;;
3293;SDS011;1659;51.470;6.770;2023-05-17T02:24:04;20.30;;;8.23;;
3293;SDS011;1659;51.470;6.770;2023-05-17T02:26:31;22.23;;;8.30;;
3293;SDS011;1659;51.470;6.770;2023-05-17T02:28:57;22.63;;;8.93;;
3293;SDS011;1659;51.470;6.770;2023-05-17T02:31:24;15.17;;;7.63;;
3293;SDS011;1659;51.470;6.770;2023-05-17T02:33:52;19.73;;;8.00;;
3293;SDS011;1659;51.470;6.770;2023-05-17T02:36:19;16.07;;;8.57;;
3293;SDS011;1659;51.470;6.770;2023-05-17T02:38:46;19.60;;;9.00;;
3293;SDS011;1659;51.470;6.770;2023-05-17T02:41:12;14.60;;;7.60;;
3293;SDS011;1659;51.470;6.770;2023-05-17T02:43:39;12.03;;;7.30;;
3293;SDS011;1659;51.470;6.770;2023-05-17T02:46:06;19.67;;;7.67;;
3293;SDS011;1659;51.470;6.770;2023-05-17T02:48:32;17.10;;;7.13;;
3293;SDS011;1659;51.470;6.770;2023-05-17T02:51:00;11.13;;;6.77;;
3293;SDS011;1659;51.470;6.770;2023-05-17T02:53:27;23.00;;;8.47;;
3293;SDS011;1659;51.470;6.770;2023-05-17T02:55:53;18.70;;;8.33;;
3293;SDS011;1659;51.470;6.770;2023-05-17T02:58:22;16.30;;;7.33;;
3293;SDS011;1659;51.470;6.770;2023-05-17T03:00:48;23.53;;;7.60;;
3293;SDS011;1659;51.470;6.770;2023-05-17T03:03:15;16.80;;;8.13;;
3293;SDS011;1659;51.470;6.770;2023-05-17T03:05:41;16.73;;;7.33;;
3293;SDS011;1659;51.470;6.770;2023-05-17T03:08:09;20.20;;;8.13;;
3293;SDS011;1659;51.470;6.770;2023-05-17T03:10:36;19.30;;;6.67;;
3293;SDS011;1659;51.470;6.770;2023-05-17T03:13:02;19.40;;;8.50;;
3293;SDS011;1659;51.470;6.770;2023-05-17T03:15:29;14.97;;;7.43;;
3293;SDS011;1659;51.470;6.770;2023-05-17T03:17:55;21.33;;;8.90;;
3293;SDS011;1659;51.470;6.770;2023-05-17T03:20:22;13.40;;;8.10;;
3293;SDS011;1659;51.470;6.770;2023-05-17T03:22:49;28.07;;;7.90;;
3293;SDS011;1659;51.470;6.770;2023-05-17T03:25:17;19.70;;;8.53;;
3293;SDS011;1659;51.470;6.770;2023-05-17T03:27:43;18.60;;;8.20;;
3293;SDS011;1659;51.470;6.770;2023-05-17T03:30:10;17.10;;;7.70;;
3293;SDS011;1659;51.470;6.770;2023-05-17T03:32:37;20.10;;;8.40;;
3293;SDS011;1659;51.470;6.770;2023-05-17T03:35:05;24.07;;;9.63;;
3293;SDS011;1659;51.470;6.770;2023-05-17T03:37:32;19.00;;;8.70;;
3293;SDS011;1659;51.470;6.770;2023-05-17T03:39:58;21.30;;;9.33;;
3293;SDS011;1659;51.470;6.770;2023-05-17T03:42:26;15.20;;;8.53;;
3293;SDS011;1659;51.470;6.770;2023-05-17T03:44:53;20.23;;;8.27;;
3293;SDS011;1659;51.470;6.770;2023-05-17T03:47:19;21.63;;;8.50;;
3293;SDS011;1659;51.470;6.770;2023-05-17T03:49:47;23.67;;;9.90;;
3293;SDS011;1659;51.470;6.770;2023-05-17T03:52:14;20.80;;;8.00;;
3293;SDS011;1659;51.470;6.770;2023-05-17T03:54:40;19.10;;;8.87;;
3293;SDS011;1659;51.470;6.770;2023-05-17T03:57:07;26.53;;;8.13;;
3293;SDS011;1659;51.470;6.770;2023-05-17T03:59:35;18.77;;;8.70;;
3293;SDS011;1659;51.470;6.770;2023-05-17T04:02:01;12.90;;;7.90;;
3293;SDS011;1659;51.470;6.770;2023-05-17T04:04:28;20.67;;;8.80;;
3293;SDS011;1659;51.470;6.770;2023-05-17T04:06:54;18.93;;;8.57;;
3293;SDS011;1659;51.470;6.770;2023-05-17T04:09:21;21.73;;;8.80;;
3293;SDS011;1659;51.470;6.770;2023-05-17T04:11:48;13.40;;;7.60;;
3293;SDS011;1659;51.470;6.770;2023-05-17T04:14:16;17.43;;;9.10;;
3293;SDS011;1659;51.470;6.770;2023-05-17T04:16:44;20.87;;;9.10;;
3293;SDS011;1659;51.470;6.770;2023-05-17T04:19:12;17.73;;;9.53;;
3293;SDS011;1659;51.470;6.770;2023-05-17T04:21:38;38.13;;;10.30;;
3293;SDS011;1659;51.470;6.770;2023-05-17T04:24:05;23.33;;;11.37;;
3293;SDS011;1659;51.470;6.770;2023-05-17T04:26:32;24.63;;;10.10;;
3293;SDS011;1659;51.470;6.770;2023-05-17T04:28:58;28.83;;;13.63;;
3293;SDS011;1659;51.470;6.770;2023-05-17T04:31:25;32.00;;;11.73;;
3293;SDS011;1659;51.470;6.770;2023-05-17T04:33:53;22.10;;;12.53;;
3293;SDS011;1659;51.470;6.770;2023-05-17T04:36:20;28.30;;;12.57;;
3293;SDS011;1659;51.470;6.770;2023-05-17T04:38:46;33.63;;;12.07;;
3293;SDS011;1659;51.470;6.770;2023-05-17T04:41:13;22.47;;;12.03;;
3293;SDS011;1659;51.470;6.770;2023-05-17T04:43:40;25.70;;;11.53;;
3293;SDS011;1659;51.470;6.770;2023-05-17T04:46:06;23.77;;;11.43;;
3293;SDS011;1659;51.470;6.770;2023-05-17T04:48:33;26.40;;;12.93;;
3293;SDS011;1659;51.470;6.770;2023-05-17T04:51:01;23.83;;;12.77;;
3293;SDS011;1659;51.470;6.770;2023-05-17T04:53:29;29.13;;;11.97;;
3293;SDS011;1659;51.470;6.770;2023-05-17T04:55:55;25.43;;;10.80;;
3293;SDS011;1659;51.470;6.770;2023-05-17T04:58:22;23.77;;;10.57;;
3293;SDS011;1659;51.470;6.770;2023-05-17T05:00:49;24.77;;;9.97;;
3293;SDS011;1659;51.470;6.770;2023-05-17T05:03:16;18.80;;;9.87;;
3293;SDS011;1659;51.470;6.770;2023-05-17T05:05:42;36.93;;;9.70;;
3293;SDS011;1659;51.470;6.770;2023-05-17T05:08:10;22.93;;;7.80;;
3293;SDS011;1659;51.470;6.770;2023-05-17T05:10:37;21.40;;;8.33;;
3293;SDS011;1659;51.470;6.770;2023-05-17T05:13:03;18.57;;;7.83;;
3293;SDS011;1659;51.470;6.770;2023-05-17T05:15:30;15.53;;;7.47;;
3293;SDS011;1659;51.470;6.770;2023-05-17T05:17:57;14.27;;;6.93;;
3293;SDS011;1659;51.470;6.770;2023-05-17T05:20:24;22.10;;;7.60;;
3293;SDS011;1659;51.470;6.770;2023-05-17T05:22:50;14.80;;;7.20;;
3293;SDS011;1659;51.470;6.770;2023-05-17T05:25:18;21.03;;;8.13;;
3293;SDS011;1659;51.470;6.770;2023-05-17T05:27:45;15.10;;;6.70;;
3293;SDS011;1659;51.470;6.770;2023-05-17T05:30:12;20.03;;;7.87;;
3293;SDS011;1659;51.470;6.770;2023-05-17T05:32:45;20.30;;;6.87;;
3293;SDS011;1659;51.470;6.770;2023-05-17T05:35:12;22.13;;;6.83;;
3293;SDS011;1659;51.470;6.770;2023-05-17T05:37:39;13.30;;;6.90;;
3293;SDS011;1659;51.470;6.770;2023-05-17T05:40:06;22.43;;;8.00;;
3293;SDS011;1659;51.470;6.770;2023-05-17T05:42:35;9.90;;;5.60;;
3293;SDS011;1659;51.470;6.770;2023-05-17T05:45:02;12.63;;;8.50;;
3293;SDS011;1659;51.470;6.770;2023-05-17T05:47:29;12.63;;;5.70;;
3293;SDS011;1659;51.470;6.770;2023-05-17T05:49:56;13.03;;;5.57;;
3293;SDS011;1659;51.470;6.770;2023-05-17T05:52:22;9.97;;;5.23;;
3293;SDS011;1659;51.470;6.770;2023-05-17T05:54:49;12.90;;;4.60;;
3293;SDS011;1659;51.470;6.770;2023-05-17T05:57:16;13.73;;;4.67;;
3293;SDS011;1659;51.470;6.770;2023-05-17T05:59:43;7.67;;;4.60;;
3293;SDS011;1659;51.470;6.770;2023-05-17T06:02:10;15.90;;;4.90;;
3293;SDS011;1659;51.470;6.770;2023-05-17T06:04:36;10.30;;;3.60;;
3293;SDS011;1659;51.470;6.770;2023-05-17T06:07:03;9.30;;;3.43;;
3293;SDS011;1659;51.470;6.770;2023-05-17T06:09:30;3.37;;;2.73;;
3293;SDS011;1659;51.470;6.770;2023-05-17T06:11:56;5.47;;;3.00;;
3293;SDS011;1659;51.470;6.770;2023-05-17T06:14:23;5.57;;;3.03;;
3293;SDS011;1659;51.470;6.770;2023-05-17T06:16:51;10.93;;;3.20;;
3293;SDS011;1659;51.470;6.770;2023-05-17T06:19:17;7.90;;;3.07;;
3293;SDS011;1659;51.470;6.770;2023-05-17T06:21:44;8.40;;;3.07;;
3293;SDS011;1659;51.470;6.770;2023-05-17T06:24:11;12.00;;;3.70;;
3293;SDS011;1659;51.470;6.770;2023-05-17T06:26:37;6.40;;;2.77;;
3293;SDS011;1659;51.470;6.770;2023-05-17T06:29:04;5.23;;;2.80;;
3293;SDS011;1659;51.470;6.770;2023-05-17T06:31:31;4.30;;;2.33;;
3293;SDS011;1659;51.470;6.770;2023-05-17T06:33:59;9.73;;;2.80;;
3293;SDS011;1659;51.470;6.770;2023-05-17T06:36:25;6.87;;;2.60;;
3293;SDS011;1659;51.470;6.770;2023-05-17T06:38:52;7.80;;;2.67;;
3293;SDS011;1659;51.470;6.770;2023-05-17T06:41:18;8.50;;;2.80;;
3293;SDS011;1659;51.470;6.770;2023-05-17T06:43:45;4.20;;;2.20;;
3293;SDS011;1659;51.470;6.770;2023-05-17T06:46:11;8.10;;;2.60;;
3293;SDS011;1659;51.470;6.770;2023-05-17T06:48:38;7.20;;;2.87;;
3293;SDS011;1659;51.470;6.770;2023-05-17T06:51:06;5.03;;;2.10;;
3293;SDS011;1659;51.470;6.770;2023-05-17T06:53:32;11.53;;;3.20;;
3293;SDS011;1659;51.470;6.770;2023-05-17T06:55:59;5.00;;;2.20;;
3293;SDS011;1659;51.470;6.770;2023-05-17T06:58:25;12.10;;;3.30;;
3293;SDS011;1659;51.470;6.770;2023-05-17T07:00:52;7.43;;;2.20;;
3293;SDS011;1659;51.470;6.770;2023-05-17T07:03:18;6.03;;;2.73;;
3293;SDS011;1659;51.470;6.770;2023-05-17T07:05:45;5.67;;;2.80;;
3293;SDS011;1659;51.470;6.770;2023-05-17T07:08:13;6.00;;;2.13;;
3293;SDS011;1659;51.470;6.770;2023-05-17T07:10:40;6.30;;;2.50;;
3293;SDS011;1659;51.470;6.770;2023-05-17T07:13:06;9.33;;;3.20;;
3293;SDS011;1659;51.470;6.770;2023-05-17T07:15:33;5.93;;;4.17;;
3293;SDS011;1659;51.470;6.770;2023-05-17T07:17:59;5.30;;;2.33;;
3293;SDS011;1659;51.470;6.770;2023-05-17T07:20:26;10.83;;;3.90;;
3293;SDS011;1659;51.470;6.770;2023-05-17T07:22:52;4.17;;;2.17;;
3293;SDS011;1659;51.470;6.770;2023-05-17T07:25:21;4.57;;;2.70;;
3293;SDS011;1659;51.470;6.770;2023-05-17T07:27:48;7.73;;;3.23;;
3293;SDS011;1659;51.470;6.770;2023-05-17T07:30:14;7.70;;;2.97;;
3293;SDS011;1659;51.470;6.770;2023-05-17T07:32:41;5.63;;;2.90;;
3293;SDS011;1659;51.470;6.770;2023-05-17T07:35:08;4.07;;;2.30;;
3293;SDS011;1659;51.470;6.770;2023-05-17T07:37:34;6.37;;;3.20;;
3293;SDS011;1659;51.470;6.770;2023-05-17T07:40:01;5.37;;;2.10;;
3293;SDS011;1659;51.470;6.770;2023-05-17T07:42:31;5.43;;;2.50;;
3293;SDS011;1659;51.470;6.770;2023-05-17T07:44:58;6.77;;;2.67;;
3293;SDS011;1659;51.470;6.770;2023-05-17T07:47:25;5.93;;;2.60;;
3293;SDS011;1659;51.470;6.770;2023-05-17T07:49:51;9.30;;;2.47;;
3293;SDS011;1659;51.470;6.770;2023-05-17T07:52:18;4.97;;;2.63;;
3293;SDS011;1659;51.470;6.770;2023-05-17T07:54:44;4.97;;;2.30;;
3293;SDS011;1659;51.470;6.770;2023-05-17T07:57:11;10.10;;;3.13;;
3293;SDS011;1659;51.470;6.770;2023-05-17T07:59:38;10.17;;;2.90;;
3293;SDS011;1659;51.470;6.770;2023-05-17T08:02:05;4.87;;;2.43;;
3293;SDS011;1659;51.470;6.770;2023-05-17T08:04:32;6.83;;;2.60;;
3293;SDS011;1659;51.470;6.770;2023-05-17T08:06:58;6.47;;;2.00;;
3293;SDS011;1659;51.470;6.770;2023-05-17T08:09:25;12.30;;;2.30;;
3293;SDS011;1659;51.470;6.770;2023-05-17T08:11:51;6.80;;;2.53;;
3293;SDS011;1659;51.470;6.770;2023-05-17T08:14:21;12.27;;;2.60;;
3293;SDS011;1659;51.470;6.770;2023-05-17T08:16:49;7.73;;;3.43;;
3293;SDS011;1659;51.470;6.770;2023-05-17T08:19:16;6.60;;;3.37;;
3293;SDS011;1659;51.470;6.770;2023-05-17T08:21:43;6.80;;;2.90;;
3293;SDS011;1659;51.470;6.770;2023-05-17T08:24:10;8.87;;;2.40;;
3293;SDS011;1659;51.470;6.770;2023-05-17T08:26:37;5.57;;;2.50;;
3293;SDS011;1659;51.470;6.770;2023-05-17T08:29:04;7.00;;;2.20;;
3293;SDS011;1659;51.470;6.770;2023-05-17T08:31:31;3.87;;;2.23;;
3293;SDS011;1659;51.470;6.770;2023-05-17T08:33:59;4.07;;;1.93;;
3293;SDS011;1659;51.470;6.770;2023-05-17T08:36:25;4.43;;;2.27;;
3293;SDS011;1659;51.470;6.770;2023-05-17T08:38:52;5.27;;;2.20;;
3293;SDS011;1659;51.470;6.770;2023-05-17T08:41:19;3.93;;;1.80;;
3293;SDS011;1659;51.470;6.770;2023-05-17T08:43:46;5.07;;;2.27;;
3293;SDS011;1659;51.470;6.770;2023-05-17T08:46:13;3.73;;;2.27;;
3293;SDS011;1659;51.470;6.770;2023-05-17T08:48:41;3.17;;;2.20;;
3293;SDS011;1659;51.470;6.770;2023-05-17T08:51:09;4.13;;;2.30;;
3293;SDS011;1659;51.470;6.770;2023-05-17T08:53:36;10.23;;;2.40;;
3293;SDS011;1659;51.470;6.770;2023-05-17T08:56:04;3.60;;;2.37;;
3293;SDS011;1659;51.470;6.770;2023-05-17T08:58:32;8.50;;;2.57;;
3293;SDS011;1659;51.470;6.770;2023-05-17T09:01:03;3.50;;;2.40;;
3293;SDS011;1659;51.470;6.770;2023-05-17T09:03:32;2.37;;;2.00;;
3293;SDS011;1659;51.470;6.770;2023-05-17T09:06:01;5.20;;;2.63;;
3293;SDS011;1659;51.470;6.770;2023-05-17T09:08:30;6.83;;;2.53;;
3293;SDS011;1659;51.470;6.770;2023-05-17T09:10:56;6.33;;;2.03;;
3293;SDS011;1659;51.470;6.770;2023-05-17T09:13:24;12.93;;;3.00;;
3293;SDS011;1659;51.470;6.770;2023-05-17T09:15:51;4.67;;;2.27;;
3293;SDS011;1659;51.470;6.770;2023-05-17T09:18:18;5.60;;;2.33;;
3293;SDS011;1659;51.470;6.770;2023-05-17T09:20:48;11.27;;;4.80;;
3293;SDS011;1659;51.470;6.770;2023-05-17T09:23:17;4.87;;;3.20;;
3293;SDS011;1659;51.470;6.770;2023-05-17T09:25:48;8.50;;;4.57;;
3293;SDS011;1659;51.470;6.770;2023-05-17T09:28:15;6.13;;;2.63;;
3293;SDS011;1659;51.470;6.770;2023-05-17T09:30:46;5.80;;;2.37;;
3293;SDS011;1659;51.470;6.770;2023-05-17T09:33:13;4.23;;;2.33;;
3293;SDS011;1659;51.470;6.770;2023-05-17T09:35:40;4.10;;;2.20;;
3293;SDS011;1659;51.470;6.770;2023-05-17T09:38:08;2.50;;;2.30;;
3293;SDS011;1659;51.470;6.770;2023-05-17T09:40:36;4.30;;;2.60;;
3293;SDS011;1659;51.470;6.770;2023-05-17T09:43:05;1.90;;;1.50;;
3293;SDS011;1659;51.470;6.770;2023-05-17T09:45:32;4.93;;;2.20;;
3293;SDS011;1659;51.470;6.770;2023-05-17T09:48:09;1.73;;;1.63;;
3293;SDS011;1659;51.470;6.770;2023-05-17T09:50:41;3.47;;;1.90;;
3293;SDS011;1659;51.470;6.770;2023-05-17T09:53:20;12.30;;;2.23;;
3293;SDS011;1659;51.470;6.770;2023-05-17T09:55:48;5.37;;;2.47;;
3293;SDS011;1659;51.470;6.770;2023-05-17T09:58:18;5.57;;;2.33;;
3293;SDS011;1659;51.470;6.770;2023-05-17T10:00:45;4.33;;;2.50;;
3293;SDS011;1659;51.470;6.770;2023-05-17T10:03:16;4.13;;;2.20;;
3293;SDS011;1659;51.470;6.770;2023-05-17T10:05:42;3.77;;;2.83;;
3293;SDS011;1659;51.470;6.770;2023-05-17T10:08:10;3.57;;;2.43;;
3293;SDS011;1659;51.470;6.770;2023-05-17T10:10:39;4.27;;;1.80;;
3293;SDS011;1659;51.470;6.770;2023-05-17T10:13:07;5.27;;;2.13;;
3293;SDS011;1659;51.470;6.770;2023-05-17T10:15:37;4.20;;;1.93;;
3293;SDS011;1659;51.470;6.770;2023-05-17T10:18:04;10.63;;;2.40;;
3293;SDS011;1659;51.470;6.770;2023-05-17T10:20:34;3.73;;;1.87;;
3293;SDS011;1659;51.470;6.770;2023-05-17T10:23:01;8.10;;;2.00;;
3293;SDS011;1659;51.470;6.770;2023-05-17T10:25:30;5.40;;;2.00;;
3293;SDS011;1659;51.470;6.770;2023-05-17T10:27:57;2.70;;;2.47;;
3293;SDS011;1659;51.470;6.770;2023-05-17T10:30:24;4.07;;;2.20;;
3293;SDS011;1659;51.470;6.770;2023-05-17T10:32:54;2.53;;;1.90;;
3293;SDS011;1659;51.470;6.770;2023-05-17T10:35:20;5.47;;;1.97;;
3293;SDS011;1659;51.470;6.770;2023-05-17T10:37:48;7.33;;;2.67;;
3293;SDS011;1659;51.470;6.770;2023-05-17T10:40:15;4.70;;;3.17;;
3293;SDS011;1659;51.470;6.770;2023-05-17T10:42:45;6.60;;;3.33;;
3293;SDS011;1659;51.470;6.770;2023-05-17T10:45:16;5.80;;;2.87;;
3293;SDS011;1659;51.470;6.770;2023-05-17T10:47:46;2.60;;;2.20;;
3293;SDS011;1659;51.470;6.770;2023-05-17T10:50:19;5.47;;;2.70;;
3293;SDS011;1659;51.470;6.770;2023-05-17T10:52:48;4.07;;;2.60;;
3293;SDS011;1659;51.470;6.770;2023-05-17T10:55:19;5.23;;;2.43;;
3293;SDS011;1659;51.470;6.770;2023-05-17T10:57:56;2.63;;;2.10;;
3293;SDS011;1659;51.470;6.770;2023-05-17T11:00:37;2.10;;;1.60;;
3293;SDS011;1659;51.470;6.770;2023-05-17T11:03:11;5.67;;;2.20;;
3293;SDS011;1659;51.470;6.770;2023-05-17T11:05:41;7.90;;;2.47;;
3293;SDS011;1659;51.470;6.770;2023-05-17T11:08:13;5.00;;;2.40;;
3293;SDS011;1659;51.470;6.770;2023-05-17T11:13:45;4.10;;;1.93;;
3293;SDS011;1659;51.470;6.770;2023-05-17T11:16:20;4.30;;;2.40;;
3293;SDS011;1659;51.470;6.770;2023-05-17T11:18:48;4.70;;;2.00;;
3293;SDS011;1659;51.470;6.770;2023-05-17T11:21:17;6.37;;;1.97;;
3293;SDS011;1659;51.470;6.770;2023-05-17T11:23:44;4.50;;;2.00;;
3293;SDS011;1659;51.470;6.770;2023-05-17T11:26:15;4.50;;;2.17;;
3293;SDS011;1659;51.470;6.770;2023-05-17T11:28:46;5.77;;;3.20;;
3293;SDS011;1659;51.470;6.770;2023-05-17T11:31:16;2.70;;;2.50;;
3293;SDS011;1659;51.470;6.770;2023-05-17T11:33:42;6.70;;;1.93;;
3293;SDS011;1659;51.470;6.770;2023-05-17T11:36:14;2.90;;;2.47;;
3293;SDS011;1659;51.470;6.770;2023-05-17T11:41:46;3.80;;;2.27;;
3293;SDS011;1659;51.470;6.770;2023-05-17T11:44:14;2.73;;;2.43;;
3293;SDS011;1659;51.470;6.770;2023-05-17T11:46:52;2.47;;;2.10;;
3293;SDS011;1659;51.470;6.770;2023-05-17T11:49:35;3.20;;;2.90;;
3293;SDS011;1659;51.470;6.770;2023-05-17T11:52:06;4.47;;;2.37;;
3293;SDS011;1659;51.470;6.770;2023-05-17T11:54:33;3.17;;;2.13;;
3293;SDS011;1659;51.470;6.770;2023-05-17T11:57:00;7.33;;;2.13;;
3293;SDS011;1659;51.470;6.770;2023-05-17T11:59:27;3.00;;;1.90;;
3293;SDS011;1659;51.470;6.770;2023-05-17T12:01:54;8.73;;;2.23;;
3293;SDS011;1659;51.470;6.770;2023-05-17T12:04:22;5.13;;;2.40;;
3293;SDS011;1659;51.470;6.770;2023-05-17T12:06:49;5.60;;;2.17;;
3293;SDS011;1659;51.470;6.770;2023-05-17T12:09:18;2.77;;;2.10;;
3293;SDS011;1659;51.470;6.770;2023-05-17T12:11:45;5.77;;;2.73;;
3293;SDS011;1659;51.470;6.770;2023-05-17T12:14:13;3.70;;;2.10;;
3293;SDS011;1659;51.470;6.770;2023-05-17T12:16:41;2.83;;;2.57;;
3293;SDS011;1659;51.470;6.770;2023-05-17T12:19:15;3.57;;;2.70;;
3293;SDS011;1659;51.470;6.770;2023-05-17T12:21:42;3.47;;;3.10;;
3293;SDS011;1659;51.470;6.770;2023-05-17T12:24:09;3.20;;;2.80;;
3293;SDS011;1659;51.470;6.770;2023-05-17T12:26:37;4.40;;;2.33;;
3293;SDS011;1659;51.470;6.770;2023-05-17T12:29:07;3.53;;;2.53;;
3293;SDS011;1659;51.470;6.770;2023-05-17T12:31:35;6.67;;;2.30;;
3293;SDS011;1659;51.470;6.770;2023-05-17T12:34:04;10.10;;;3.80;;
3293;SDS011;1659;51.470;6.770;2023-05-17T12:36:33;2.63;;;2.40;;
3293;SDS011;1659;51.470;6.770;2023-05-17T12:39:01;4.13;;;2.40;;
3293;SDS011;1659;51.470;6.770;2023-05-17T12:41:32;6.50;;;2.40;;
3293;SDS011;1659;51.470;6.770;2023-05-17T12:44:01;2.90;;;2.30;;
3293;SDS011;1659;51.470;6.770;2023-05-17T12:46:28;5.17;;;2.33;;
3293;SDS011;1659;51.470;6.770;2023-05-17T12:48:54;4.50;;;2.13;;
3293;SDS011;1659;51.470;6.770;2023-05-17T12:51:26;4.07;;;2.20;;
3293;SDS011;1659;51.470;6.770;2023-05-17T12:53:52;5.37;;;2.73;;
3293;SDS011;1659;51.470;6.770;2023-05-17T12:56:20;5.90;;;2.27;;
3293;SDS011;1659;51.470;6.770;2023-05-17T12:59:05;2.67;;;1.97;;
3293;SDS011;1659;51.470;6.770;2023-05-17T13:01:38;4.73;;;2.40;;
3293;SDS011;1659;51.470;6.770;2023-05-17T13:04:07;3.03;;;2.13;;
3293;SDS011;1659;51.470;6.770;2023-05-17T13:06:43;7.40;;;4.90;;
3293;SDS011;1659;51.470;6.770;2023-05-17T13:09:11;7.67;;;3.27;;
3293;SDS011;1659;51.470;6.770;2023-05-17T13:11:38;6.17;;;2.70;;
3293;SDS011;1659;51.470;6.770;2023-05-17T13:14:07;7.10;;;2.23;;
3293;SDS011;1659;51.470;6.770;2023-05-17T13:16:36;5.90;;;2.90;;
3293;SDS011;1659;51.470;6.770;2023-05-17T13:19:10;3.80;;;2.20;;
3293;SDS011;1659;51.470;6.770;2023-05-17T13:21:37;4.63;;;2.50;;
3293;SDS011;1659;51.470;6.770;2023-05-17T13:24:04;5.43;;;2.53;;
3293;SDS011;1659;51.470;6.770;2023-05-17T13:26:31;4.70;;;2.40;;
3293;SDS011;1659;51.470;6.770;2023-05-17T13:28:57;11.33;;;3.30;;
3293;SDS011;1659;51.470;6.770;2023-05-17T13:31:25;3.27;;;2.57;;
3293;SDS011;1659;51.470;6.770;2023-05-17T13:33:52;8.63;;;3.13;;
3293;SDS011;1659;51.470;6.770;2023-05-17T13:36:18;5.90;;;3.27;;
3293;SDS011;1659;51.470;6.770;2023-05-17T13:38:45;8.53;;;3.30;;
3293;SDS011;1659;51.470;6.770;2023-05-17T13:41:11;3.87;;;3.03;;
3293;SDS011;1659;51.470;6.770;2023-05-17T13:43:38;5.13;;;2.33;;
3293;SDS011;1659;51.470;6.770;2023-05-17T13:46:04;4.37;;;2.70;;
3293;SDS011;1659;51.470;6.770;2023-05-17T13:48:32;3.87;;;2.60;;
3293;SDS011;1659;51.470;6.770;2023-05-17T13:50:59;4.93;;;2.83;;
3293;SDS011;1659;51.470;6.770;2023-05-17T13:53:26;4.10;;;2.40;;
3293;SDS011;1659;51.470;6.770;2023-05-17T13:55:52;3.70;;;2.50;;
3293;SDS011;1659;51.470;6.770;2023-05-17T13:58:19;4.67;;;2.13;;
3293;SDS011;1659;51.470;6.770;2023-05-17T14:00:45;3.00;;;2.80;;
3293;SDS011;1659;51.470;6.770;2023-05-17T14:03:12;7.10;;;3.33;;
3293;SDS011;1659;51.470;6.770;2023-05-17T14:05:40;4.10;;;2.53;;
3293;SDS011;1659;51.470;6.770;2023-05-17T14:08:07;3.50;;;2.47;;
3293;SDS011;1659;51.470;6.770;2023-05-17T14:10:34;6.23;;;2.70;;
3293;SDS011;1659;51.470;6.770;2023-05-17T14:13:01;2.47;;;2.27;;
3293;SDS011;1659;51.470;6.770;2023-05-17T14:15:27;5.70;;;2.77;;
3293;SDS011;1659;51.470;6.770;2023-05-17T14:17:54;3.90;;;2.67;;
3293;SDS011;1659;51.470;6.770;2023-05-17T14:20:21;5.17;;;2.80;;
3293;SDS011;1659;51.470;6.770;2023-05-17T14:22:49;7.50;;;3.03;;
3293;SDS011;1659;51.470;6.770;2023-05-17T14:25:15;3.57;;;2.63;;
3293;SDS011;1659;51.470;6.770;2023-05-17T14:27:42;2.97;;;2.67;;
3293;SDS011;1659;51.470;6.770;2023-05-17T14:30:09;3.83;;;2.60;;
3293;SDS011;1659;51.470;6.770;2023-05-17T14:32:36;4.77;;;2.47;;
3293;SDS011;1659;51.470;6.770;2023-05-17T14:35:04;3.27;;;2.87;;
3293;SDS011;1659;51.470;6.770;2023-05-17T14:37:31;5.20;;;2.60;;
3293;SDS011;1659;51.470;6.770;2023-05-17T14:39:59;3.93;;;2.50;;
3293;SDS011;1659;51.470;6.770;2023-05-17T14:42:26;2.00;;;1.90;;
3293;SDS011;1659;51.470;6.770;2023-05-17T14:44:54;5.90;;;2.60;;
3293;SDS011;1659;51.470;6.770;2023-05-17T14:47:21;4.80;;;2.10;;
3293;SDS011;1659;51.470;6.770;2023-05-17T14:49:48;3.60;;;2.53;;
3293;SDS011;1659;51.470;6.770;2023-05-17T14:52:14;6.10;;;2.30;;
3293;SDS011;1659;51.470;6.770;2023-05-17T14:54:41;3.97;;;2.27;;
3293;SDS011;1659;51.470;6.770;2023-05-17T14:57:09;8.67;;;2.77;;
3293;SDS011;1659;51.470;6.770;2023-05-17T14:59:36;4.30;;;2.43;;
3293;SDS011;1659;51.470;6.770;2023-05-17T15:02:03;6.73;;;2.40;;
3293;SDS011;1659;51.470;6.770;2023-05-17T15:04:30;4.27;;;2.53;;
3293;SDS011;1659;51.470;6.770;2023-05-17T15:06:56;8.83;;;2.97;;
3293;SDS011;1659;51.470;6.770;2023-05-17T15:09:23;2.83;;;2.30;;
3293;SDS011;1659;51.470;6.770;2023-05-17T15:11:50;6.57;;;3.40;;
3293;SDS011;1659;51.470;6.770;2023-05-17T15:14:17;6.73;;;2.77;;
3293;SDS011;1659;51.470;6.770;2023-05-17T15:16:46;3.40;;;2.57;;
3293;SDS011;1659;51.470;6.770;2023-05-17T15:19:13;6.77;;;2.30;;